Satellite (InfraRed)

KFLL 240153Z 01004KT 10SM CLR 18/03 A3020 RMK AO2 SLP225 T01780033
KMCO 240153Z 10006KT 10SM CLR 14/06 A3024 RMK AO2 SLP238 T01390061
KMIA 240153Z 02006KT 10SM CLR 20/07 A3020 RMK AO2 SLP227 T02000067
KTPA 240153Z 36006KT 10SM CLR 16/07 A3023 RMK AO2 SLP236 T01560072
MDPP 240200Z 00000KT 9999 FEW018CB BKN018 25/23 Q1017 CB/W
MDSD 240200Z 03005KT 9999 FEW014CB BKN016 BKN070 22/21 Q1016 CB/NE/E/SE/N
MKJS 240200Z 11008KT 9999 FEW022 26/21 Q1016
MTPP 240000Z 30007KT 8000 SCT022CB BKN050 27/22 Q1014 A2995
MUHA 240055Z 08005KT 9999 FEW025 19/12 Q1021
MYNN 240100Z 33005KT 9999 FEW025 21/11 A3018
TAPA 240100Z 12005KT 9999 SCT018 25/20 Q1016 NOSIG
TFFF 240130Z AUTO 08005KT CAVOK 24/20 Q1015 TEMPO 4000 SHRA BKN015TCU
TFFR 240130Z AUTO 11004KT CAVOK 24/20 Q1016 TEMPO 4000 SHRA BKN015TCU
TIST 240053Z 11006KT 10SM SCT021 23/23 A3002 RMK AO2 SLP167 T02330233 $
TISX 240053Z 06005KT 10SM CLR 25/22 A3003 RMK AO2 SLP167 T02500222
TJSJ 240056Z 19003KT 10SM FEW060 26/22 A3002 RMK AO2 SLP165 T02610222
TKPK 240100Z 08008KT 9999 FEW018 26/21 Q1016
TNCA 240100Z 08013KT 9999 FEW018 27/23 Q1013 A2992 NOSIG
TNCB 240055Z AUTO 08013KT 9999 // NSC 26/22 Q1013 RE//
TNCC 240100Z 09011KT CAVOK 26/22 Q1014 NOSIG
TNCE 240055Z AUTO 08007KT //// // ///////// 25/21 Q1017 RE//
TNCM 240100Z 09006KT 060V130 9999 FEW019 26/21 Q1017 NOSIG RMK A3004 LGT HZ ALSEC
TQPF 232200Z 11010KT 9999 SCT020 25/20 Q1015
TUPJ 240000Z 14006KT 10SM SCT019 26/20 A3002 RMK Q1016